sensor_id;sensor_type;location;lat;lon;timestamp;noise_LAeq;noise_LA_min;noise_LA_max;noise_LA01;noise_LA95
81493;Laerm;70900;51.798;10.954;2023-11-19T00:00:28;35.27;29.91;53.59;;
81493;Laerm;70900;51.798;10.954;2023-11-19T00:02:54;39.42;31.71;60.91;;
81493;Laerm;70900;51.798;10.954;2023-11-19T00:05:19;37.68;32.70;45.09;;
81493;Laerm;70900;51.798;10.954;2023-11-19T00:07:45;38.66;32.24;53.10;;
81493;Laerm;70900;51.798;10.954;2023-11-19T00:10:10;40.69;33.09;57.77;;
81493;Laerm;70900;51.798;10.954;2023-11-19T00:12:42;40.21;34.13;52.53;;
81493;Laerm;70900;51.798;10.954;2023-11-19T00:15:09;42.09;35.22;58.85;;
81493;Laerm;70900;51.798;10.954;2023-11-19T00:17:39;41.97;34.98;56.86;;
81493;Laerm;70900;51.798;10.954;2023-11-19T00:20:17;43.50;35.18;56.87;;
81493;Laerm;70900;51.798;10.954;2023-11-19T00:22:43;51.02;37.54;68.64;;
81493;Laerm;70900;51.798;10.954;2023-11-19T00:25:09;44.09;38.32;54.96;;
81493;Laerm;70900;51.798;10.954;2023-11-19T00:27:34;47.64;42.46;56.10;;
81493;Laerm;70900;51.798;10.954;2023-11-19T00:30:00;49.67;42.93;66.94;;
81493;Laerm;70900;51.798;10.954;2023-11-19T00:32:25;49.38;39.70;69.02;;
81493;Laerm;70900;51.798;10.954;2023-11-19T00:34:50;46.13;40.49;55.31;;
81493;Laerm;70900;51.798;10.954;2023-11-19T00:37:16;48.37;39.28;58.38;;
81493;Laerm;70900;51.798;10.954;2023-11-19T00:39:42;44.90;39.51;55.19;;
81493;Laerm;70900;51.798;10.954;2023-11-19T00:42:09;46.87;37.94;54.00;;
81493;Laerm;70900;51.798;10.954;2023-11-19T00:44:35;42.43;37.01;52.58;;
81493;Laerm;70900;51.798;10.954;2023-11-19T00:47:00;40.83;34.50;49.59;;
81493;Laerm;70900;51.798;10.954;2023-11-19T00:49:26;39.77;33.33;48.17;;
81493;Laerm;70900;51.798;10.954;2023-11-19T00:51:51;33.26;28.30;44.76;;
81493;Laerm;70900;51.798;10.954;2023-11-19T00:54:17;31.92;28.46;48.96;;
81493;Laerm;70900;51.798;10.954;2023-11-19T00:56:42;32.67;29.65;39.29;;
81493;Laerm;70900;51.798;10.954;2023-11-19T00:59:08;43.60;30.92;68.05;;
81493;Laerm;70900;51.798;10.954;2023-11-19T01:01:33;45.97;30.55;68.09;;
81493;Laerm;70900;51.798;10.954;2023-11-19T01:03:58;55.45;32.29;71.04;;
81493;Laerm;70900;51.798;10.954;2023-11-19T01:06:27;48.38;31.34;64.86;;
81493;Laerm;70900;51.798;10.954;2023-11-19T01:08:53;36.06;31.02;47.88;;
81493;Laerm;70900;51.798;10.954;2023-11-19T01:11:19;34.61;30.63;47.78;;
81493;Laerm;70900;51.798;10.954;2023-11-19T01:13:46;32.01;29.14;43.40;;
81493;Laerm;70900;51.798;10.954;2023-11-19T01:16:11;33.16;29.49;45.59;;
81493;Laerm;70900;51.798;10.954;2023-11-19T01:18:38;34.05;30.43;44.11;;
81493;Laerm;70900;51.798;10.954;2023-11-19T01:21:03;32.50;28.91;48.89;;
81493;Laerm;70900;51.798;10.954;2023-11-19T01:23:29;32.35;28.07;43.33;;
81493;Laerm;70900;51.798;10.954;2023-11-19T01:25:54;38.55;28.50;59.08;;
81493;Laerm;70900;51.798;10.954;2023-11-19T01:28:20;39.77;28.96;56.24;;
81493;Laerm;70900;51.798;10.954;2023-11-19T01:30:45;31.84;29.01;41.30;;
81493;Laerm;70900;51.798;10.954;2023-11-19T01:33:10;38.39;29.38;47.08;;
81493;Laerm;70900;51.798;10.954;2023-11-19T01:35:36;30.62;27.96;40.44;;
81493;Laerm;70900;51.798;10.954;2023-11-19T01:38:01;31.05;28.46;41.67;;
81493;Laerm;70900;51.798;10.954;2023-11-19T01:40:26;32.12;28.87;44.23;;
81493;Laerm;70900;51.798;10.954;2023-11-19T01:42:52;31.71;29.22;42.24;;
81493;Laerm;70900;51.798;10.954;2023-11-19T01:45:27;37.82;30.77;55.73;;
81493;Laerm;70900;51.798;10.954;2023-11-19T01:47:53;36.90;33.11;45.67;;
81493;Laerm;70900;51.798;10.954;2023-11-19T01:50:18;43.79;36.79;55.92;;
81493;Laerm;70900;51.798;10.954;2023-11-19T01:52:44;48.47;37.43;69.36;;
81493;Laerm;70900;51.798;10.954;2023-11-19T01:55:10;49.41;39.50;75.40;;
81493;Laerm;70900;51.798;10.954;2023-11-19T01:57:36;43.24;38.75;54.04;;
81493;Laerm;70900;51.798;10.954;2023-11-19T02:00:03;45.34;39.00;61.52;;
81493;Laerm;70900;51.798;10.954;2023-11-19T02:02:29;50.98;42.63;62.93;;
81493;Laerm;70900;51.798;10.954;2023-11-19T02:04:55;51.44;42.76;64.86;;
81493;Laerm;70900;51.798;10.954;2023-11-19T02:07:21;50.09;42.94;60.75;;
81493;Laerm;70900;51.798;10.954;2023-11-19T02:09:46;52.15;44.65;62.00;;
81493;Laerm;70900;51.798;10.954;2023-11-19T02:12:12;52.38;46.38;62.29;;
81493;Laerm;70900;51.798;10.954;2023-11-19T02:14:37;51.35;46.06;58.03;;
81493;Laerm;70900;51.798;10.954;2023-11-19T02:17:03;53.99;48.77;63.23;;
81493;Laerm;70900;51.798;10.954;2023-11-19T02:19:29;55.52;49.28;62.48;;
81493;Laerm;70900;51.798;10.954;2023-11-19T02:21:55;57.20;49.38;70.05;;
81493;Laerm;70900;51.798;10.954;2023-11-19T02:24:21;54.38;48.19;59.45;;
81493;Laerm;70900;51.798;10.954;2023-11-19T02:26:59;54.21;48.77;61.57;;
81493;Laerm;70900;51.798;10.954;2023-11-19T02:29:27;54.59;47.61;60.36;;
81493;Laerm;70900;51.798;10.954;2023-11-19T02:31:52;53.21;47.60;60.71;;
81493;Laerm;70900;51.798;10.954;2023-11-19T02:34:20;54.72;47.25;63.81;;
81493;Laerm;70900;51.798;10.954;2023-11-19T02:36:47;51.17;45.64;59.12;;
81493;Laerm;70900;51.798;10.954;2023-11-19T02:39:12;51.02;45.56;58.71;;
81493;Laerm;70900;51.798;10.954;2023-11-19T02:41:38;49.23;44.49;58.29;;
81493;Laerm;70900;51.798;10.954;2023-11-19T02:44:05;51.55;44.09;63.83;;
81493;Laerm;70900;51.798;10.954;2023-11-19T02:46:31;50.79;44.51;62.68;;
81493;Laerm;70900;51.798;10.954;2023-11-19T02:48:57;51.01;46.01;61.06;;
81493;Laerm;70900;51.798;10.954;2023-11-19T02:51:22;53.19;46.39;60.42;;
81493;Laerm;70900;51.798;10.954;2023-11-19T02:53:47;52.16;46.89;59.26;;
81493;Laerm;70900;51.798;10.954;2023-11-19T02:56:13;51.30;46.17;57.10;;
81493;Laerm;70900;51.798;10.954;2023-11-19T02:58:50;54.11;48.57;61.17;;
81493;Laerm;70900;51.798;10.954;2023-11-19T03:01:23;52.18;48.28;58.40;;
81493;Laerm;70900;51.798;10.954;2023-11-19T03:03:54;52.18;46.40;63.15;;
81493;Laerm;70900;51.798;10.954;2023-11-19T03:06:20;52.85;49.13;61.01;;
81493;Laerm;70900;51.798;10.954;2023-11-19T03:08:46;53.10;49.40;59.19;;
81493;Laerm;70900;51.798;10.954;2023-11-19T03:11:12;53.44;49.28;61.88;;
81493;Laerm;70900;51.798;10.954;2023-11-19T03:13:37;52.49;46.30;60.28;;
81493;Laerm;70900;51.798;10.954;2023-11-19T03:16:03;51.78;46.12;59.51;;
81493;Laerm;70900;51.798;10.954;2023-11-19T03:18:28;50.68;46.34;56.80;;
81493;Laerm;70900;51.798;10.954;2023-11-19T03:20:53;50.19;45.07;66.71;;
81493;Laerm;70900;51.798;10.954;2023-11-19T03:23:19;49.41;44.78;54.86;;
81493;Laerm;70900;51.798;10.954;2023-11-19T03:25:44;50.35;44.41;57.88;;
81493;Laerm;70900;51.798;10.954;2023-11-19T03:28:10;50.96;45.61;59.38;;
81493;Laerm;70900;51.798;10.954;2023-11-19T03:30:36;52.07;46.37;63.81;;
81493;Laerm;70900;51.798;10.954;2023-11-19T03:33:01;51.32;46.32;59.72;;
81493;Laerm;70900;51.798;10.954;2023-11-19T03:35:27;49.77;44.40;62.51;;
81493;Laerm;70900;51.798;10.954;2023-11-19T03:37:53;49.44;43.70;57.83;;
81493;Laerm;70900;51.798;10.954;2023-11-19T03:40:18;50.65;44.67;63.99;;
81493;Laerm;70900;51.798;10.954;2023-11-19T03:42:47;51.46;44.34;64.17;;
81493;Laerm;70900;51.798;10.954;2023-11-19T03:45:12;50.03;44.64;58.64;;
81493;Laerm;70900;51.798;10.954;2023-11-19T03:47:38;50.77;44.20;66.85;;
81493;Laerm;70900;51.798;10.954;2023-11-19T03:50:04;50.70;44.28;58.58;;
81493;Laerm;70900;51.798;10.954;2023-11-19T03:52:30;49.64;44.66;57.13;;
81493;Laerm;70900;51.798;10.954;2023-11-19T03:54:55;48.63;43.94;58.86;;
81493;Laerm;70900;51.798;10.954;2023-11-19T03:57:22;49.85;44.75;54.98;;
81493;Laerm;70900;51.798;10.954;2023-11-19T03:59:47;54.05;45.26;70.28;;
81493;Laerm;70900;51.798;10.954;2023-11-19T04:02:13;47.61;40.53;59.30;;
81493;Laerm;70900;51.798;10.954;2023-11-19T04:04:38;49.86;40.97;58.13;;
81493;Laerm;70900;51.798;10.954;2023-11-19T04:07:04;47.89;42.65;56.18;;
81493;Laerm;70900;51.798;10.954;2023-11-19T04:09:30;48.67;43.49;57.47;;
81493;Laerm;70900;51.798;10.954;2023-11-19T04:11:58;49.67;42.06;59.81;;
81493;Laerm;70900;51.798;10.954;2023-11-19T04:14:24;46.63;40.71;53.95;;
81493;Laerm;70900;51.798;10.954;2023-11-19T04:16:50;46.10;41.44;54.69;;
81493;Laerm;70900;51.798;10.954;2023-11-19T04:19:16;46.98;42.29;56.61;;
81493;Laerm;70900;51.798;10.954;2023-11-19T04:21:41;51.85;43.58;68.03;;
81493;Laerm;70900;51.798;10.954;2023-11-19T04:24:07;51.03;43.20;63.76;;
81493;Laerm;70900;51.798;10.954;2023-11-19T04:26:33;53.49;46.13;67.21;;
81493;Laerm;70900;51.798;10.954;2023-11-19T04:28:58;53.05;45.63;61.46;;
81493;Laerm;70900;51.798;10.954;2023-11-19T04:31:28;51.49;46.11;67.44;;
81493;Laerm;70900;51.798;10.954;2023-11-19T04:33:53;48.69;43.28;55.25;;
81493;Laerm;70900;51.798;10.954;2023-11-19T04:36:20;47.18;41.84;54.41;;
81493;Laerm;70900;51.798;10.954;2023-11-19T04:38:49;48.71;42.37;59.08;;
81493;Laerm;70900;51.798;10.954;2023-11-19T04:41:14;46.70;42.42;54.12;;
81493;Laerm;70900;51.798;10.954;2023-11-19T04:43:40;46.58;39.57;57.03;;
81493;Laerm;70900;51.798;10.954;2023-11-19T04:46:05;43.84;38.48;51.26;;
81493;Laerm;70900;51.798;10.954;2023-11-19T04:48:30;52.45;42.58;63.24;;
81493;Laerm;70900;51.798;10.954;2023-11-19T04:50:56;50.23;43.32;63.53;;
81493;Laerm;70900;51.798;10.954;2023-11-19T04:53:21;49.26;43.82;59.44;;
81493;Laerm;70900;51.798;10.954;2023-11-19T04:55:47;54.17;39.62;69.95;;
81493;Laerm;70900;51.798;10.954;2023-11-19T04:58:12;46.73;41.36;58.79;;
81493;Laerm;70900;51.798;10.954;2023-11-19T05:00:38;50.76;38.91;66.20;;
81493;Laerm;70900;51.798;10.954;2023-11-19T05:03:03;45.34;37.74;63.78;;
81493;Laerm;70900;51.798;10.954;2023-11-19T05:05:29;43.67;37.45;54.04;;
81493;Laerm;70900;51.798;10.954;2023-11-19T05:07:54;45.19;39.80;56.55;;
81493;Laerm;70900;51.798;10.954;2023-11-19T05:10:20;45.89;39.68;58.17;;
81493;Laerm;70900;51.798;10.954;2023-11-19T05:12:45;42.10;36.49;52.93;;
81493;Laerm;70900;51.798;10.954;2023-11-19T05:15:11;43.30;36.50;58.25;;
81493;Laerm;70900;51.798;10.954;2023-11-19T05:17:37;39.83;33.50;51.89;;
81493;Laerm;70900;51.798;10.954;2023-11-19T05:20:02;45.70;35.92;54.28;;
81493;Laerm;70900;51.798;10.954;2023-11-19T05:22:28;42.85;37.35;52.93;;
81493;Laerm;70900;51.798;10.954;2023-11-19T05:24:53;43.44;38.32;53.00;;
81493;Laerm;70900;51.798;10.954;2023-11-19T05:27:19;43.34;38.31;57.92;;
81493;Laerm;70900;51.798;10.954;2023-11-19T05:29:45;44.69;38.89;56.19;;
81493;Laerm;70900;51.798;10.954;2023-11-19T05:32:10;48.86;39.30;64.76;;
81493;Laerm;70900;51.798;10.954;2023-11-19T05:34:36;45.28;37.77;55.67;;
81493;Laerm;70900;51.798;10.954;2023-11-19T05:37:01;43.68;38.45;50.85;;
81493;Laerm;70900;51.798;10.954;2023-11-19T05:39:28;44.62;38.47;52.96;;
81493;Laerm;70900;51.798;10.954;2023-11-19T05:41:53;53.95;37.68;70.57;;
81493;Laerm;70900;51.798;10.954;2023-11-19T05:44:18;47.15;36.08;63.76;;
81493;Laerm;70900;51.798;10.954;2023-11-19T05:46:44;52.25;38.87;68.95;;
81493;Laerm;70900;51.798;10.954;2023-11-19T05:49:10;48.69;37.79;57.45;;
81493;Laerm;70900;51.798;10.954;2023-11-19T05:51:37;47.48;41.80;55.42;;
81493;Laerm;70900;51.798;10.954;2023-11-19T05:54:02;48.19;42.72;55.65;;
81493;Laerm;70900;51.798;10.954;2023-11-19T05:56:27;51.52;45.07;59.77;;
81493;Laerm;70900;51.798;10.954;2023-11-19T05:58:57;51.73;42.19;61.94;;
81493;Laerm;70900;51.798;10.954;2023-11-19T06:01:23;53.19;45.03;61.84;;
81493;Laerm;70900;51.798;10.954;2023-11-19T06:03:48;47.98;42.50;55.72;;
81493;Laerm;70900;51.798;10.954;2023-11-19T06:06:15;52.81;42.05;66.44;;
81493;Laerm;70900;51.798;10.954;2023-11-19T06:08:40;53.19;41.61;66.05;;
81493;Laerm;70900;51.798;10.954;2023-11-19T06:11:05;50.10;40.36;65.47;;
81493;Laerm;70900;51.798;10.954;2023-11-19T06:13:31;46.19;39.85;55.56;;
81493;Laerm;70900;51.798;10.954;2023-11-19T06:15:56;47.54;42.02;53.90;;
81493;Laerm;70900;51.798;10.954;2023-11-19T06:18:22;48.87;39.96;60.15;;
81493;Laerm;70900;51.798;10.954;2023-11-19T06:20:48;52.51;40.45;68.42;;
81493;Laerm;70900;51.798;10.954;2023-11-19T06:23:15;48.90;41.44;58.72;;
81493;Laerm;70900;51.798;10.954;2023-11-19T06:25:40;52.00;40.67;69.76;;
81493;Laerm;70900;51.798;10.954;2023-11-19T06:28:05;44.53;39.28;49.82;;
81493;Laerm;70900;51.798;10.954;2023-11-19T06:30:31;49.58;43.75;54.83;;
81493;Laerm;70900;51.798;10.954;2023-11-19T06:32:58;47.50;41.19;61.38;;
81493;Laerm;70900;51.798;10.954;2023-11-19T06:35:23;46.56;40.21;60.83;;
81493;Laerm;70900;51.798;10.954;2023-11-19T06:37:48;53.95;39.77;70.02;;
81493;Laerm;70900;51.798;10.954;2023-11-19T06:40:14;47.06;40.72;57.27;;
81493;Laerm;70900;51.798;10.954;2023-11-19T06:42:40;45.24;36.42;57.55;;
81493;Laerm;70900;51.798;10.954;2023-11-19T06:45:06;41.61;35.24;49.30;;
81493;Laerm;70900;51.798;10.954;2023-11-19T06:47:32;43.80;35.19;51.61;;
81493;Laerm;70900;51.798;10.954;2023-11-19T06:49:58;44.07;36.30;53.85;;
81493;Laerm;70900;51.798;10.954;2023-11-19T06:52:23;42.73;35.04;66.03;;
81493;Laerm;70900;51.798;10.954;2023-11-19T06:54:49;40.81;34.35;51.25;;
81493;Laerm;70900;51.798;10.954;2023-11-19T06:57:14;38.51;32.13;45.43;;
81493;Laerm;70900;51.798;10.954;2023-11-19T06:59:40;40.21;33.79;51.37;;
81493;Laerm;70900;51.798;10.954;2023-11-19T07:02:06;40.07;32.75;52.50;;
81493;Laerm;70900;51.798;10.954;2023-11-19T07:04:31;40.13;33.52;60.15;;
81493;Laerm;70900;51.798;10.954;2023-11-19T07:06:58;46.64;34.88;67.75;;
81493;Laerm;70900;51.798;10.954;2023-11-19T07:09:23;41.83;33.21;64.45;;
81493;Laerm;70900;51.798;10.954;2023-11-19T07:11:49;40.93;31.80;61.49;;
81493;Laerm;70900;51.798;10.954;2023-11-19T07:14:17;52.90;33.06;72.71;;
81493;Laerm;70900;51.798;10.954;2023-11-19T07:16:42;51.77;35.51;67.86;;
81493;Laerm;70900;51.798;10.954;2023-11-19T07:19:08;51.56;34.48;65.25;;
81493;Laerm;70900;51.798;10.954;2023-11-19T07:21:33;37.69;32.97;53.59;;
81493;Laerm;70900;51.798;10.954;2023-11-19T07:23:59;50.52;34.50;67.37;;
81493;Laerm;70900;51.798;10.954;2023-11-19T07:26:24;38.95;32.40;52.62;;
81493;Laerm;70900;51.798;10.954;2023-11-19T07:28:50;54.27;33.23;70.12;;
81493;Laerm;70900;51.798;10.954;2023-11-19T07:31:16;51.91;31.07;68.02;;
81493;Laerm;70900;51.798;10.954;2023-11-19T07:33:43;62.85;33.91;80.57;;
81493;Laerm;70900;51.798;10.954;2023-11-19T07:36:09;55.81;33.87;69.95;;
81493;Laerm;70900;51.798;10.954;2023-11-19T07:38:35;39.79;33.73;52.21;;
81493;Laerm;70900;51.798;10.954;2023-11-19T07:41:00;43.44;32.19;55.44;;
81493;Laerm;70900;51.798;10.954;2023-11-19T07:43:26;39.79;31.73;61.80;;
81493;Laerm;70900;51.798;10.954;2023-11-19T07:45:51;46.23;32.21;69.80;;
81493;Laerm;70900;51.798;10.954;2023-11-19T07:48:16;52.12;35.73;65.92;;
81493;Laerm;70900;51.798;10.954;2023-11-19T07:50:43;55.34;35.13;72.66;;
81493;Laerm;70900;51.798;10.954;2023-11-19T07:53:08;47.34;35.28;62.59;;
81493;Laerm;70900;51.798;10.954;2023-11-19T07:55:34;53.75;34.02;67.58;;
81493;Laerm;70900;51.798;10.954;2023-11-19T07:57:59;48.08;32.68;65.75;;
81493;Laerm;70900;51.798;10.954;2023-11-19T08:00:25;38.06;33.38;53.20;;
81493;Laerm;70900;51.798;10.954;2023-11-19T08:02:50;54.32;34.29;71.51;;
81493;Laerm;70900;51.798;10.954;2023-11-19T08:05:15;54.52;33.25;72.14;;
81493;Laerm;70900;51.798;10.954;2023-11-19T08:07:41;51.71;34.37;74.09;;
81493;Laerm;70900;51.798;10.954;2023-11-19T08:10:07;45.40;33.99;70.79;;
81493;Laerm;70900;51.798;10.954;2023-11-19T08:12:35;47.70;33.14;63.82;;
81493;Laerm;70900;51.798;10.954;2023-11-19T08:15:01;40.56;31.23;57.29;;
81493;Laerm;70900;51.798;10.954;2023-11-19T08:17:27;37.62;32.31;50.75;;
81493;Laerm;70900;51.798;10.954;2023-11-19T08:19:52;51.16;30.58;66.26;;
81493;Laerm;70900;51.798;10.954;2023-11-19T08:22:17;52.00;31.99;68.93;;
81493;Laerm;70900;51.798;10.954;2023-11-19T08:24:43;46.60;31.27;61.85;;
81493;Laerm;70900;51.798;10.954;2023-11-19T08:27:08;54.83;33.62;67.31;;
81493;Laerm;70900;51.798;10.954;2023-11-19T08:29:34;38.38;33.28;48.39;;
81493;Laerm;70900;51.798;10.954;2023-11-19T08:32:02;55.11;34.77;70.06;;
81493;Laerm;70900;51.798;10.954;2023-11-19T08:34:28;58.62;38.07;73.90;;
81493;Laerm;70900;51.798;10.954;2023-11-19T08:36:54;55.36;37.64;68.74;;
81493;Laerm;70900;51.798;10.954;2023-11-19T08:39:19;52.28;32.52;68.44;;
81493;Laerm;70900;51.798;10.954;2023-11-19T08:41:46;41.79;33.71;61.51;;
81493;Laerm;70900;51.798;10.954;2023-11-19T08:44:12;49.24;35.39;62.70;;
81493;Laerm;70900;51.798;10.954;2023-11-19T08:46:38;48.76;35.27;69.39;;
81493;Laerm;70900;51.798;10.954;2023-11-19T08:49:05;55.64;36.36;70.31;;
81493;Laerm;70900;51.798;10.954;2023-11-19T08:51:30;50.40;34.91;68.03;;
81493;Laerm;70900;51.798;10.954;2023-11-19T08:53:56;52.33;36.20;67.55;;
81493;Laerm;70900;51.798;10.954;2023-11-19T08:56:22;52.05;37.97;63.22;;
81493;Laerm;70900;51.798;10.954;2023-11-19T08:58:48;52.03;38.92;68.04;;
81493;Laerm;70900;51.798;10.954;2023-11-19T09:01:13;44.28;35.56;60.60;;
81493;Laerm;70900;51.798;10.954;2023-11-19T09:03:38;55.04;36.07;70.49;;
81493;Laerm;70900;51.798;10.954;2023-11-19T09:06:04;55.45;39.01;69.55;;
81493;Laerm;70900;51.798;10.954;2023-11-19T09:08:29;43.44;39.44;55.55;;
81493;Laerm;70900;51.798;10.954;2023-11-19T09:10:55;42.14;37.30;57.74;;
81493;Laerm;70900;51.798;10.954;2023-11-19T09:13:20;46.39;38.08;56.16;;
81493;Laerm;70900;51.798;10.954;2023-11-19T09:15:45;52.47;41.66;75.09;;
81493;Laerm;70900;51.798;10.954;2023-11-19T09:18:11;59.12;41.34;72.62;;
81493;Laerm;70900;51.798;10.954;2023-11-19T09:20:36;53.56;38.86;64.45;;
81493;Laerm;70900;51.798;10.954;2023-11-19T09:23:04;53.11;39.48;69.26;;
81493;Laerm;70900;51.798;10.954;2023-11-19T09:25:30;47.04;39.21;56.80;;
81493;Laerm;70900;51.798;10.954;2023-11-19T09:27:55;50.85;38.97;64.88;;
81493;Laerm;70900;51.798;10.954;2023-11-19T09:30:21;53.13;39.74;69.48;;
81493;Laerm;70900;51.798;10.954;2023-11-19T09:32:46;53.60;38.42;69.91;;
81493;Laerm;70900;51.798;10.954;2023-11-19T09:35:11;41.69;38.00;53.82;;
81493;Laerm;70900;51.798;10.954;2023-11-19T09:37:40;54.18;39.46;67.31;;
81493;Laerm;70900;51.798;10.954;2023-11-19T09:40:05;42.29;36.86;58.17;;
81493;Laerm;70900;51.798;10.954;2023-11-19T09:42:31;49.25;35.40;65.35;;
81493;Laerm;70900;51.798;10.954;2023-11-19T09:45:04;52.44;36.03;67.34;;
81493;Laerm;70900;51.798;10.954;2023-11-19T09:47:35;52.10;35.28;71.62;;
81493;Laerm;70900;51.798;10.954;2023-11-19T09:50:01;50.73;33.70;66.58;;
81493;Laerm;70900;51.798;10.954;2023-11-19T09:52:26;52.36;36.64;66.96;;
81493;Laerm;70900;51.798;10.954;2023-11-19T09:54:51;52.20;36.79;64.72;;
81493;Laerm;70900;51.798;10.954;2023-11-19T09:57:17;49.30;34.06;63.27;;
81493;Laerm;70900;51.798;10.954;2023-11-19T09:59:42;54.93;38.85;68.18;;
81493;Laerm;70900;51.798;10.954;2023-11-19T10:02:08;55.38;37.01;72.92;;
81493;Laerm;70900;51.798;10.954;2023-11-19T10:04:34;52.94;39.38;66.53;;
81493;Laerm;70900;51.798;10.954;2023-11-19T10:07:00;44.81;39.51;62.84;;
81493;Laerm;70900;51.798;10.954;2023-11-19T10:09:26;53.14;39.28;66.70;;
81493;Laerm;70900;51.798;10.954;2023-11-19T10:11:51;44.28;37.03;55.15;;
81493;Laerm;70900;51.798;10.954;2023-11-19T10:14:18;49.16;38.31;64.62;;
81493;Laerm;70900;51.798;10.954;2023-11-19T10:16:46;55.03;39.99;71.44;;
81493;Laerm;70900;51.798;10.954;2023-11-19T10:19:12;52.52;38.93;66.85;;
81493;Laerm;70900;51.798;10.954;2023-11-19T10:21:43;53.55;40.24;67.72;;
81493;Laerm;70900;51.798;10.954;2023-11-19T10:24:11;48.43;36.86;61.69;;
81493;Laerm;70900;51.798;10.954;2023-11-19T10:26:36;51.00;37.18;67.80;;
81493;Laerm;70900;51.798;10.954;2023-11-19T10:29:02;51.64;36.76;66.91;;
81493;Laerm;70900;51.798;10.954;2023-11-19T10:31:27;53.40;37.18;65.26;;
81493;Laerm;70900;51.798;10.954;2023-11-19T10:33:53;56.25;40.88;69.77;;
81493;Laerm;70900;51.798;10.954;2023-11-19T10:36:19;43.19;37.87;56.71;;
81493;Laerm;70900;51.798;10.954;2023-11-19T10:38:54;55.81;41.98;69.73;;
81493;Laerm;70900;51.798;10.954;2023-11-19T10:41:26;53.94;38.27;68.45;;
81493;Laerm;70900;51.798;10.954;2023-11-19T10:43:52;48.36;37.39;64.20;;
81493;Laerm;70900;51.798;10.954;2023-11-19T10:46:17;49.26;38.99;62.63;;
81493;Laerm;70900;51.798;10.954;2023-11-19T10:48:46;54.41;39.87;66.91;;
81493;Laerm;70900;51.798;10.954;2023-11-19T10:51:11;53.98;40.66;68.86;;
81493;Laerm;70900;51.798;10.954;2023-11-19T10:53:40;53.97;37.18;66.51;;
81493;Laerm;70900;51.798;10.954;2023-11-19T10:56:10;55.70;37.45;68.49;;
81493;Laerm;70900;51.798;10.954;2023-11-19T10:58:36;49.39;37.97;61.32;;
81493;Laerm;70900;51.798;10.954;2023-11-19T11:01:07;51.79;39.45;67.84;;
81493;Laerm;70900;51.798;10.954;2023-11-19T11:03:40;46.99;41.32;59.69;;
81493;Laerm;70900;51.798;10.954;2023-11-19T11:06:06;49.14;36.60;68.66;;
81493;Laerm;70900;51.798;10.954;2023-11-19T11:08:34;52.78;36.38;68.45;;
81493;Laerm;70900;51.798;10.954;2023-11-19T11:11:01;54.34;35.05;69.74;;
81493;Laerm;70900;51.798;10.954;2023-11-19T11:13:27;38.02;33.32;47.05;;
81493;Laerm;70900;51.798;10.954;2023-11-19T11:15:56;49.14;36.58;64.99;;
81493;Laerm;70900;51.798;10.954;2023-11-19T11:18:23;53.44;34.78;64.71;;
81493;Laerm;70900;51.798;10.954;2023-11-19T11:20:50;39.51;35.70;49.43;;
81493;Laerm;70900;51.798;10.954;2023-11-19T11:26:15;56.30;36.91;68.03;;
81493;Laerm;70900;51.798;10.954;2023-11-19T11:28:52;39.97;35.51;58.08;;
81493;Laerm;70900;51.798;10.954;2023-11-19T11:36:31;40.49;34.93;55.72;;
81493;Laerm;70900;51.798;10.954;2023-11-19T11:39:02;53.08;37.80;68.10;;
81493;Laerm;70900;51.798;10.954;2023-11-19T11:41:32;48.86;38.23;62.95;;
81493;Laerm;70900;51.798;10.954;2023-11-19T11:43:58;42.23;37.47;56.89;;
81493;Laerm;70900;51.798;10.954;2023-11-19T11:49:01;48.60;36.85;64.74;;
81493;Laerm;70900;51.798;10.954;2023-11-19T11:54:08;44.57;37.52;65.89;;
81493;Laerm;70900;51.798;10.954;2023-11-19T11:56:33;44.22;38.16;55.75;;
81493;Laerm;70900;51.798;10.954;2023-11-19T11:59:02;53.22;39.11;66.97;;
81493;Laerm;70900;51.798;10.954;2023-11-19T12:01:31;55.35;41.39;67.11;;
81493;Laerm;70900;51.798;10.954;2023-11-19T12:04:00;50.27;39.45;62.05;;
81493;Laerm;70900;51.798;10.954;2023-11-19T12:06:28;57.75;39.42;72.00;;
81493;Laerm;70900;51.798;10.954;2023-11-19T12:08:59;54.55;39.50;71.80;;
81493;Laerm;70900;51.798;10.954;2023-11-19T12:11:28;51.59;38.29;63.89;;
81493;Laerm;70900;51.798;10.954;2023-11-19T12:13:56;46.64;37.98;57.80;;
81493;Laerm;70900;51.798;10.954;2023-11-19T12:16:34;51.73;39.64;61.92;;
81493;Laerm;70900;51.798;10.954;2023-11-19T12:19:12;52.35;37.68;68.92;;
81493;Laerm;70900;51.798;10.954;2023-11-19T12:21:41;52.25;37.71;65.29;;
81493;Laerm;70900;51.798;10.954;2023-11-19T12:24:15;45.30;37.51;57.05;;
81493;Laerm;70900;51.798;10.954;2023-11-19T12:27:03;48.10;39.52;60.43;;
81493;Laerm;70900;51.798;10.954;2023-11-19T12:29:41;50.75;38.57;66.00;;
81493;Laerm;70900;51.798;10.954;2023-11-19T12:32:13;51.27;38.56;65.97;;
81493;Laerm;70900;51.798;10.954;2023-11-19T12:34:43;56.13;40.65;74.58;;
81493;Laerm;70900;51.798;10.954;2023-11-19T12:37:10;42.93;37.48;56.93;;
81493;Laerm;70900;51.798;10.954;2023-11-19T12:39:36;52.39;39.32;68.13;;
81493;Laerm;70900;51.798;10.954;2023-11-19T12:42:02;51.90;43.06;64.31;;
81493;Laerm;70900;51.798;10.954;2023-11-19T12:44:27;51.53;39.56;68.28;;
81493;Laerm;70900;51.798;10.954;2023-11-19T12:47:03;39.70;36.29;46.17;;
81493;Laerm;70900;51.798;10.954;2023-11-19T12:49:28;41.91;37.27;51.44;;
81493;Laerm;70900;51.798;10.954;2023-11-19T12:51:54;53.92;36.11;68.70;;
81493;Laerm;70900;51.798;10.954;2023-11-19T12:54:19;50.98;37.27;66.13;;
81493;Laerm;70900;51.798;10.954;2023-11-19T12:56:51;43.35;35.75;58.24;;
81493;Laerm;70900;51.798;10.954;2023-11-19T12:59:17;51.28;38.16;65.68;;
81493;Laerm;70900;51.798;10.954;2023-11-19T13:01:53;53.61;39.00;64.68;;
81493;Laerm;70900;51.798;10.954;2023-11-19T13:04:19;52.01;38.30;64.91;;
81493;Laerm;70900;51.798;10.954;2023-11-19T13:06:47;42.70;36.56;58.53;;
81493;Laerm;70900;51.798;10.954;2023-11-19T13:09:25;40.74;34.50;56.53;;
81493;Laerm;70900;51.798;10.954;2023-11-19T13:11:51;55.56;37.04;71.90;;
81493;Laerm;70900;51.798;10.954;2023-11-19T13:14:17;57.38;39.88;75.98;;
81493;Laerm;70900;51.798;10.954;2023-11-19T13:16:44;50.67;38.82;73.43;;
81493;Laerm;70900;51.798;10.954;2023-11-19T13:19:12;52.21;39.91;65.93;;
81493;Laerm;70900;51.798;10.954;2023-11-19T13:21:37;54.42;39.88;68.34;;
81493;Laerm;70900;51.798;10.954;2023-11-19T13:24:05;54.42;40.06;68.67;;
81493;Laerm;70900;51.798;10.954;2023-11-19T13:26:31;47.02;40.51;63.70;;
81493;Laerm;70900;51.798;10.954;2023-11-19T13:28:56;42.13;37.68;53.20;;
81493;Laerm;70900;51.798;10.954;2023-11-19T13:31:22;53.41;37.99;66.67;;
81493;Laerm;70900;51.798;10.954;2023-11-19T13:33:47;61.06;39.04;78.93;;
81493;Laerm;70900;51.798;10.954;2023-11-19T13:36:12;56.53;38.03;70.62;;
81493;Laerm;70900;51.798;10.954;2023-11-19T13:38:38;54.00;38.74;70.74;;
81493;Laerm;70900;51.798;10.954;2023-11-19T13:41:06;53.62;38.50;65.88;;